createdAt,value
2022-10-30T00:00:31.649Z,99983.13
2022-10-30T00:02:58.965Z,99968.47
2022-10-30T00:05:26.340Z,99971.56
2022-10-30T00:07:56.804Z,99975.81
2022-10-30T00:10:24.483Z,99958.25
2022-10-30T00:12:51.767Z,99944.38
2022-10-30T00:15:20.548Z,99967.91
2022-10-30T00:17:47.394Z,99984.47
2022-10-30T00:20:14.329Z,99951.78
2022-10-30T00:22:41.175Z,99987.84
2022-10-30T00:25:08.553Z,99933.69
2022-10-30T00:27:35.343Z,99950.59
2022-10-30T00:30:02.173Z,99960.16
2022-10-30T00:32:29.099Z,99964.22
2022-10-30T00:34:55.967Z,99970.09
2022-10-30T00:37:22.848Z,99960.88
2022-10-30T00:39:49.657Z,99996.47
2022-10-30T00:42:18.074Z,99973.56
2022-10-30T00:44:44.808Z,99996.94
2022-10-30T00:47:32.919Z,99996.34
2022-10-30T00:50:09.640Z,99991.31
2022-10-30T00:52:41.020Z,99978.94
2022-10-30T00:55:19.968Z,99996.09
2022-10-30T00:57:48.408Z,100003.19
2022-10-30T01:00:16.344Z,99982.25
2022-10-30T01:02:44.430Z,100004.34
2022-10-30T01:05:15.899Z,99942.50
2022-10-30T01:07:42.785Z,100013.78
2022-10-30T01:10:11.721Z,100011.03
2022-10-30T01:12:39.380Z,99997.97
2022-10-30T01:15:07.334Z,99984.28
2022-10-30T01:17:48.845Z,99992.38
2022-10-30T01:20:24.307Z,99995.13
2022-10-30T01:23:20.853Z,99963.97
2022-10-30T01:26:20.226Z,99999.66
2022-10-30T01:29:19.940Z,99984.59
2022-10-30T01:31:52.680Z,99993.13
2022-10-30T01:37:38.468Z,99987.63
2022-10-30T01:40:09.890Z,99983.81
2022-10-30T01:42:55.544Z,100002.72
2022-10-30T01:45:47.292Z,99997.09
2022-10-30T01:48:29.017Z,99978.84
2022-10-30T01:52:00.383Z,100011.59
2022-10-30T01:54:45.852Z,99998.34
2022-10-30T01:57:35.271Z,99921.75
2022-10-30T02:00:14.144Z,99997.50
2022-10-30T02:02:43.100Z,99969.91
2022-10-30T02:05:14.813Z,99905.50
2022-10-30T02:07:41.752Z,99995.47
2022-10-30T02:10:11.403Z,99990.09
2022-10-30T02:12:39.095Z,99972.28
2022-10-30T02:15:06.308Z,99986.75
2022-10-30T02:17:33.215Z,99918.16
2022-10-30T02:20:00.025Z,100005.75
2022-10-30T02:22:26.983Z,99944.22
2022-10-30T02:24:53.902Z,99950.44
2022-10-30T02:27:20.782Z,99952.38
2022-10-30T02:29:47.674Z,99949.88
2022-10-30T02:32:14.591Z,99974.69
2022-10-30T02:34:43.072Z,100002.53
2022-10-30T02:37:09.957Z,99943.28
2022-10-30T02:39:36.795Z,99994.53
2022-10-30T02:42:03.635Z,99980.41
2022-10-30T02:44:30.520Z,100014.22
2022-10-30T02:46:58.402Z,99953.28
2022-10-30T02:49:25.208Z,100001.09
2022-10-30T02:51:52.130Z,100016.75
2022-10-30T02:54:18.941Z,100017.22
2022-10-30T02:56:45.784Z,100014.94
2022-10-30T02:59:12.724Z,99987.88
2022-10-30T03:01:39.699Z,99983.56
2022-10-30T03:04:06.659Z,99991.00
2022-10-30T03:06:33.659Z,100011.41
2022-10-30T03:09:00.664Z,99998.28
2022-10-30T03:11:27.500Z,100026.69
2022-10-30T03:13:54.683Z,100004.31
2022-10-30T03:16:26.343Z,100018.53
2022-10-30T03:18:53.403Z,99990.50
2022-10-30T03:21:23.402Z,99955.94
2022-10-30T03:23:53.626Z,99979.50
2022-10-30T03:26:20.829Z,99977.91
2022-10-30T03:28:47.631Z,100024.25
2022-10-30T03:31:17.185Z,100032.56
2022-10-30T03:33:44.522Z,100013.00
2022-10-30T03:36:12.951Z,100021.59
2022-10-30T03:38:40.474Z,100025.13
2022-10-30T03:41:07.357Z,100013.44
2022-10-30T03:43:34.736Z,100025.59
2022-10-30T03:46:01.754Z,100008.63
2022-10-30T03:48:30.819Z,100023.25
2022-10-30T03:50:59.682Z,99970.16
2022-10-30T03:53:28.738Z,100007.50
2022-10-30T03:56:04.231Z,99983.38
2022-10-30T03:58:31.126Z,99956.63
2022-10-30T04:01:03.226Z,100031.09
2022-10-30T04:03:30.771Z,99984.38
2022-10-30T04:05:58.463Z,99998.75
2022-10-30T04:08:25.362Z,99976.00
2022-10-30T04:10:52.316Z,100019.81
2022-10-30T04:13:20.480Z,100015.28
2022-10-30T04:15:55.977Z,100005.63
2022-10-30T04:18:25.166Z,99991.38
2022-10-30T04:20:51.961Z,100005.72
2022-10-30T04:23:20.440Z,99979.91
2022-10-30T04:25:47.234Z,100005.63
2022-10-30T04:28:14.461Z,99995.22
2022-10-30T04:30:42.020Z,99959.25
2022-10-30T04:33:12.372Z,99972.41
2022-10-30T04:35:39.729Z,99951.97
2022-10-30T04:38:14.816Z,99981.50
2022-10-30T04:40:45.871Z,99945.06
2022-10-30T04:43:13.833Z,99970.63
2022-10-30T04:45:41.735Z,99961.41
2022-10-30T04:48:14.269Z,99962.03
2022-10-30T04:50:41.122Z,99977.81
2022-10-30T04:53:13.067Z,99972.53
2022-10-30T04:55:39.974Z,99955.06
2022-10-30T04:58:08.300Z,99964.38
2022-10-30T05:00:35.358Z,99971.81
2022-10-30T05:03:02.871Z,99982.56
2022-10-30T05:05:30.769Z,99973.28
2022-10-30T05:07:58.909Z,99993.59
2022-10-30T05:10:26.200Z,99934.31
2022-10-30T05:12:54.541Z,99982.31
2022-10-30T05:15:21.772Z,99989.25
2022-10-30T05:17:53.072Z,99964.38
2022-10-30T05:20:20.056Z,100003.72
2022-10-30T05:22:47.267Z,99995.81
2022-10-30T05:25:14.213Z,100011.59
2022-10-30T05:27:41.115Z,100008.97
2022-10-30T05:30:08.408Z,100003.72
2022-10-30T05:32:35.369Z,99986.38
2022-10-30T05:35:02.303Z,99949.06
2022-10-30T05:37:29.189Z,99966.47
2022-10-30T05:39:56.036Z,99968.84
2022-10-30T05:42:22.962Z,99979.00
2022-10-30T05:45:05.093Z,99992.72
2022-10-30T05:47:31.967Z,100001.03
2022-10-30T05:49:59.075Z,100007.47
2022-10-30T05:52:25.826Z,99996.06
2022-10-30T05:54:52.816Z,99943.94
2022-10-30T05:57:20.011Z,99998.38
2022-10-30T05:59:46.958Z,99979.00
2022-10-30T06:02:13.972Z,99996.00
2022-10-30T06:04:40.793Z,99961.47
2022-10-30T06:07:07.678Z,99990.31
2022-10-30T06:09:34.637Z,99970.66
2022-10-30T06:12:01.495Z,99927.16
2022-10-30T06:14:28.323Z,99957.31
2022-10-30T06:16:55.443Z,99980.72
2022-10-30T06:19:22.509Z,99990.31
2022-10-30T06:21:49.380Z,99962.25
2022-10-30T06:24:16.242Z,99924.47
2022-10-30T06:26:43.048Z,99966.00
2022-10-30T06:29:09.823Z,100000.13
2022-10-30T06:31:36.647Z,99951.38
2022-10-30T06:34:03.516Z,99940.00
2022-10-30T06:36:30.261Z,99918.84
2022-10-30T06:38:57.511Z,99930.31
2022-10-30T06:41:26.199Z,99980.94
2022-10-30T06:43:57.435Z,99967.13
2022-10-30T06:46:27.143Z,99992.72
2022-10-30T06:48:58.394Z,99944.91
2022-10-30T06:51:25.548Z,99974.78
2022-10-30T06:53:52.438Z,99942.28
2022-10-30T06:56:19.243Z,100010.63
2022-10-30T06:58:46.136Z,99985.25
2022-10-30T07:01:13.201Z,99976.88
2022-10-30T07:03:40.193Z,99961.91
2022-10-30T07:06:07.321Z,99990.50
2022-10-30T07:08:34.265Z,99946.13
2022-10-30T07:11:01.120Z,99966.31
2022-10-30T07:13:28.046Z,99958.97
2022-10-30T07:15:54.908Z,99957.31
2022-10-30T07:18:21.752Z,99957.06
2022-10-30T07:20:48.651Z,99986.78
2022-10-30T07:23:15.486Z,99924.94
2022-10-30T07:25:42.393Z,99975.06
2022-10-30T07:28:09.268Z,100005.16
2022-10-30T07:30:36.220Z,100002.06
2022-10-30T07:33:05.784Z,99960.28
2022-10-30T07:35:35.056Z,100020.09
2022-10-30T07:38:04.611Z,100004.28
2022-10-30T07:40:31.933Z,100012.66
2022-10-30T07:43:00.978Z,99953.69
2022-10-30T07:45:28.929Z,100011.22
2022-10-30T07:47:56.861Z,99966.78
2022-10-30T07:50:24.596Z,100023.50
2022-10-30T07:52:51.367Z,100025.38
2022-10-30T07:55:18.154Z,99982.72
2022-10-30T07:57:45.088Z,100030.84
2022-10-30T08:00:13.833Z,100022.63
2022-10-30T08:02:41.732Z,99958.53
2022-10-30T08:05:09.218Z,100035.56
2022-10-30T08:07:38.241Z,100035.63
2022-10-30T08:10:07.012Z,100020.53
2022-10-30T08:12:34.977Z,100032.59
2022-10-30T08:15:02.062Z,100021.19
2022-10-30T08:17:29.113Z,100011.88
2022-10-30T08:19:58.199Z,99998.00
2022-10-30T08:22:25.420Z,99987.00
2022-10-30T08:24:52.339Z,100023.59
2022-10-30T08:27:19.093Z,99965.28
2022-10-30T08:29:45.969Z,100002.72
2022-10-30T08:32:12.832Z,99969.81
2022-10-30T08:34:40.234Z,99952.19
2022-10-30T08:37:08.151Z,99980.03
2022-10-30T08:39:35.103Z,99984.13
2022-10-30T08:42:02.232Z,99946.34
2022-10-30T08:44:28.990Z,100018.34
2022-10-30T08:46:55.863Z,99985.13
2022-10-30T08:49:22.826Z,99998.16
2022-10-30T08:51:49.591Z,99962.22
2022-10-30T08:54:16.514Z,100010.31
2022-10-30T08:56:43.347Z,99951.47
2022-10-30T08:59:12.376Z,99972.88
2022-10-30T09:01:40.887Z,99998.44
2022-10-30T09:04:07.916Z,100025.22
2022-10-30T09:06:34.755Z,100014.97
2022-10-30T09:09:01.605Z,99955.44
2022-10-30T09:11:28.588Z,99970.75
2022-10-30T09:13:55.544Z,99992.25
2022-10-30T09:16:22.428Z,99990.84
2022-10-30T09:18:49.272Z,100043.63
2022-10-30T09:21:16.210Z,100042.63
2022-10-30T09:23:44.136Z,100031.50
2022-10-30T09:26:14.433Z,100001.13
2022-10-30T09:28:45.198Z,100001.06
2022-10-30T09:31:12.137Z,100024.44
2022-10-30T09:33:38.939Z,100019.31
2022-10-30T09:36:06.193Z,100040.41
2022-10-30T09:38:33.077Z,100046.91
2022-10-30T09:41:35.714Z,100052.94
2022-10-30T09:44:22.690Z,100008.63
2022-10-30T09:47:03.653Z,100048.38
2022-10-30T09:49:47.346Z,100059.53
2022-10-30T09:52:36.798Z,100056.88
2022-10-30T09:55:19.674Z,100044.16
2022-10-30T09:58:14.186Z,100058.53
2022-10-30T10:00:50.464Z,100061.81
2022-10-30T10:03:53.696Z,100071.78
2022-10-30T10:06:21.314Z,100052.66
2022-10-30T10:09:01.336Z,100057.03
2022-10-30T10:11:36.276Z,100068.66
2022-10-30T10:14:28.642Z,100047.31
2022-10-30T10:16:59.035Z,100053.78
2022-10-30T10:19:57.946Z,100087.38
2022-10-30T10:22:37.895Z,100033.59
2022-10-30T10:25:09.694Z,100099.31
2022-10-30T10:27:53.246Z,100095.25
2022-10-30T10:30:49.528Z,100079.94
2022-10-30T10:36:10.262Z,100112.44
2022-10-30T10:38:47.615Z,100114.09
2022-10-30T10:41:19.441Z,100127.84
2022-10-30T10:44:07.334Z,100127.13
2022-10-30T10:47:07.002Z,100131.06
2022-10-30T10:49:43.631Z,100135.06
2022-10-30T10:52:24.679Z,100095.50
2022-10-30T10:55:00.582Z,100111.63
2022-10-30T10:57:35.407Z,100135.78
2022-10-30T11:00:18.808Z,100160.78
2022-10-30T11:03:00.923Z,100105.09
2022-10-30T11:05:38.293Z,100119.72
2022-10-30T11:08:17.527Z,100163.56
2022-10-30T11:10:46.936Z,100118.41
2022-10-30T11:13:16.956Z,100121.91
2022-10-30T11:16:08.749Z,100180.47
2022-10-30T11:18:35.826Z,100128.13
2022-10-30T11:21:16.857Z,100114.09
2022-10-30T11:23:46.269Z,100188.38
2022-10-30T11:26:19.018Z,100195.16
2022-10-30T11:28:58.127Z,100202.72
2022-10-30T11:31:28.488Z,100203.97
2022-10-30T11:33:55.589Z,100202.28
2022-10-30T11:36:24.984Z,100207.25
2022-10-30T11:38:53.057Z,100213.88
2022-10-30T11:41:21.070Z,100218.22
2022-10-30T11:43:49.439Z,100133.00
2022-10-30T11:46:23.644Z,100218.59
2022-10-30T11:48:56.842Z,100156.63
2022-10-30T11:51:38.672Z,100219.88
2022-10-30T11:54:06.519Z,100216.16
2022-10-30T11:56:35.680Z,100207.66
2022-10-30T11:59:05.072Z,100222.56
2022-10-30T12:01:37.006Z,100215.22
2022-10-30T12:04:24.623Z,100189.63
2022-10-30T12:07:19.724Z,100217.84
2022-10-30T12:09:48.313Z,100207.72
2022-10-30T12:12:36.641Z,100219.69
2022-10-30T12:15:21.718Z,100181.72
2022-10-30T12:17:53.630Z,100236.91
2022-10-30T12:20:21.241Z,100237.50
2022-10-30T12:22:48.152Z,100227.03
2022-10-30T12:25:28.426Z,100246.63
2022-10-30T12:28:07.067Z,100241.50
2022-10-30T12:30:47.872Z,100236.41
2022-10-30T12:33:21.080Z,100235.50
2022-10-30T12:35:55.218Z,100234.16
2022-10-30T12:38:37.118Z,100248.81
2022-10-30T12:41:15.894Z,100251.16
2022-10-30T12:43:48.795Z,100254.06
2022-10-30T12:46:38.609Z,100252.28
2022-10-30T12:49:14.618Z,100261.28
2022-10-30T12:51:46.558Z,100265.38
2022-10-30T12:54:39.806Z,100229.69
2022-10-30T12:57:06.637Z,100265.94
2022-10-30T12:59:46.604Z,100261.06
2022-10-30T13:02:30.398Z,100262.34
2022-10-30T13:05:06.428Z,100239.63
2022-10-30T13:07:45.199Z,100270.19
2022-10-30T13:10:33.905Z,100270.72
2022-10-30T13:13:30.407Z,100273.25
2022-10-30T13:16:00.634Z,100275.03
2022-10-30T13:18:27.614Z,100271.22
2022-10-30T13:20:58.933Z,100271.69
2022-10-30T13:23:33.604Z,100273.88
2022-10-30T13:26:03.317Z,100286.03
2022-10-30T13:28:47.624Z,100280.31
2022-10-30T13:31:25.377Z,100266.06
2022-10-30T13:34:03.622Z,100271.09
2022-10-30T13:36:33.592Z,100275.91
2022-10-30T13:39:14.555Z,100289.19
2022-10-30T13:42:13.552Z,100272.34
2022-10-30T13:45:08.672Z,100285.53
2022-10-30T13:47:47.020Z,100281.53
2022-10-30T13:50:16.466Z,100293.44
2022-10-30T13:52:53.700Z,100295.03
2022-10-30T13:55:26.286Z,100289.66
2022-10-30T13:58:05.250Z,100270.31
2022-10-30T14:00:46.639Z,100292.34
2022-10-30T14:03:39.364Z,100294.53
2022-10-30T14:06:22.842Z,100297.91
2022-10-30T14:09:20.046Z,100284.63
2022-10-30T14:11:46.988Z,100295.28
2022-10-30T14:14:13.769Z,100303.66
2022-10-30T14:16:46.462Z,100299.13
2022-10-30T14:19:14.894Z,100307.25
2022-10-30T14:21:54.072Z,100295.97
2022-10-30T14:24:22.869Z,100306.63
2022-10-30T14:26:55.143Z,100307.00
2022-10-30T14:29:41.139Z,100310.09
2022-10-30T14:32:19.543Z,100310.31
2022-10-30T14:34:52.626Z,100307.41
2022-10-30T14:37:39.538Z,100313.91
2022-10-30T14:40:43.654Z,100314.38
2022-10-30T14:43:27.988Z,100316.06
2022-10-30T14:46:02.172Z,100325.09
2022-10-30T14:48:34.074Z,100300.53
2022-10-30T14:51:09.366Z,100313.09
2022-10-30T14:53:51.012Z,100334.13
2022-10-30T14:59:14.420Z,100333.78
2022-10-30T15:02:15.012Z,100337.00
2022-10-30T15:05:06.918Z,100325.75
2022-10-30T15:07:58.231Z,100318.69
2022-10-30T15:10:31.857Z,100309.72
2022-10-30T15:13:07.676Z,100328.38
2022-10-30T15:15:35.057Z,100342.59
2022-10-30T15:18:29.433Z,100335.50
2022-10-30T15:21:04.453Z,100336.69
2022-10-30T15:23:36.938Z,100320.09
2022-10-30T15:26:09.970Z,100341.53
2022-10-30T15:28:38.935Z,100352.06
2022-10-30T15:31:08.604Z,100359.41
2022-10-30T15:33:38.057Z,100346.34
2022-10-30T15:36:05.726Z,100359.66
2022-10-30T15:38:32.620Z,100351.47
2022-10-30T15:41:02.543Z,100342.16
2022-10-30T15:43:37.013Z,100367.69
2022-10-30T15:46:10.338Z,100349.63
2022-10-30T15:48:41.446Z,100365.44
2022-10-30T15:51:16.222Z,100375.75
2022-10-30T15:53:50.396Z,100375.63
2022-10-30T15:56:26.146Z,100378.59
2022-10-30T15:58:58.414Z,100369.63
2022-10-30T16:01:28.146Z,100347.00
2022-10-30T16:03:55.084Z,100380.28
2022-10-30T16:06:26.944Z,100375.72
2022-10-30T16:08:53.913Z,100345.28
2022-10-30T16:11:22.853Z,100369.56
2022-10-30T16:13:50.223Z,100383.59
2022-10-30T16:16:31.713Z,100378.19
2022-10-30T16:19:00.379Z,100387.72
2022-10-30T16:21:31.231Z,100379.22
2022-10-30T16:24:06.196Z,100399.56
2022-10-30T16:26:35.092Z,100407.66
2022-10-30T16:29:26.404Z,100389.66
2022-10-30T16:31:54.232Z,100388.16
2022-10-30T16:34:32.175Z,100394.47
2022-10-30T16:37:00.275Z,100402.72
2022-10-30T16:39:28.140Z,100406.00
2022-10-30T16:42:00.148Z,100406.69
2022-10-30T16:44:30.771Z,100410.09
2022-10-30T16:47:16.629Z,100419.47
2022-10-30T16:49:49.781Z,100409.84
2022-10-30T16:52:17.459Z,100423.06
2022-10-30T16:54:52.744Z,100419.59
2022-10-30T16:57:37.186Z,100418.66
2022-10-30T17:00:05.752Z,100403.22
2022-10-30T17:02:37.103Z,100423.50
2022-10-30T17:05:27.578Z,100420.66
2022-10-30T17:08:17.155Z,100426.94
2022-10-30T17:11:01.924Z,100426.41
2022-10-30T17:13:34.947Z,100423.38
2022-10-30T17:16:20.365Z,100434.06
2022-10-30T17:18:57.017Z,100432.16
2022-10-30T17:21:26.609Z,100448.44
2022-10-30T17:23:58.170Z,100435.06
2022-10-30T17:26:29.052Z,100438.09
2022-10-30T17:28:56.312Z,100456.06
2022-10-30T17:31:42.392Z,100457.19
2022-10-30T17:34:19.754Z,100457.06
2022-10-30T17:36:47.871Z,100454.72
2022-10-30T17:39:15.159Z,100465.44
2022-10-30T17:41:43.442Z,100474.25
2022-10-30T17:44:20.284Z,100475.16
2022-10-30T17:46:47.206Z,100463.41
2022-10-30T17:49:22.784Z,100476.97
2022-10-30T17:51:49.520Z,100476.03
2022-10-30T17:54:16.301Z,100467.16
2022-10-30T17:56:43.092Z,100487.63
2022-10-30T17:59:09.935Z,100488.38
2022-10-30T18:01:36.822Z,100482.59
2022-10-30T18:04:16.237Z,100452.97
2022-10-30T18:06:45.227Z,100476.69
2022-10-30T18:09:12.917Z,100481.47
2022-10-30T18:11:39.772Z,100445.38
2022-10-30T18:14:06.766Z,100481.94
2022-10-30T18:16:33.606Z,100489.53
2022-10-30T18:19:00.642Z,100484.66
2022-10-30T18:21:27.642Z,100489.91
2022-10-30T18:23:55.489Z,100492.53
2022-10-30T18:26:25.000Z,100496.00
2022-10-30T18:28:52.178Z,100501.72
2022-10-30T18:31:22.372Z,100510.50
2022-10-30T18:33:49.756Z,100510.50
2022-10-30T18:36:22.517Z,100502.91
2022-10-30T18:38:49.984Z,100501.34
2022-10-30T18:41:19.382Z,100507.97
2022-10-30T18:43:47.402Z,100497.13
2022-10-30T18:46:16.186Z,100512.56
2022-10-30T18:48:44.096Z,100502.19
2022-10-30T18:51:18.787Z,100504.16
2022-10-30T18:53:51.903Z,100500.78
2022-10-30T18:56:26.950Z,100507.25
2022-10-30T18:58:58.800Z,100489.75
2022-10-30T19:01:32.387Z,100512.66
2022-10-30T19:04:01.275Z,100500.78
2022-10-30T19:06:28.961Z,100499.75
2022-10-30T19:08:56.164Z,100476.09
2022-10-30T19:11:25.315Z,100495.66
2022-10-30T19:13:53.287Z,100502.88
2022-10-30T19:16:21.052Z,100504.56
2022-10-30T19:18:48.889Z,100501.72
2022-10-30T19:21:17.901Z,100480.50
2022-10-30T19:23:44.948Z,100486.63
2022-10-30T19:26:14.692Z,100485.53
2022-10-30T19:28:42.296Z,100486.53
2022-10-30T19:31:13.991Z,100463.31
2022-10-30T19:33:40.793Z,100489.91
2022-10-30T19:36:27.238Z,100481.56
2022-10-30T19:38:54.340Z,100489.22
2022-10-30T19:41:21.331Z,100478.94
2022-10-30T19:43:48.177Z,100466.38
2022-10-30T19:46:15.380Z,100475.41
2022-10-30T19:48:59.190Z,100450.56
2022-10-30T19:51:27.646Z,100444.78
2022-10-30T19:53:54.550Z,100460.97
2022-10-30T19:56:21.739Z,100467.50
2022-10-30T19:58:48.923Z,100470.31
2022-10-30T20:01:16.165Z,100462.56
2022-10-30T20:03:43.357Z,100480.03
2022-10-30T20:06:13.687Z,100469.53
2022-10-30T20:08:40.445Z,100477.72
2022-10-30T20:11:07.902Z,100487.63
2022-10-30T20:13:34.841Z,100472.06
2022-10-30T20:16:05.074Z,100471.88
2022-10-30T20:18:34.327Z,100475.03
2022-10-30T20:21:04.072Z,100452.78
2022-10-30T20:23:31.089Z,100430.06
2022-10-30T20:26:03.802Z,100461.16
2022-10-30T20:28:35.526Z,100449.19
2022-10-30T20:31:03.167Z,100421.78
2022-10-30T20:33:30.222Z,100378.72
2022-10-30T20:36:01.329Z,100397.72
2022-10-30T20:38:31.496Z,100443.97
2022-10-30T20:41:01.513Z,100334.63
2022-10-30T20:43:39.267Z,100435.03
2022-10-30T20:46:11.076Z,100422.97
2022-10-30T20:48:38.312Z,100428.09
2022-10-30T20:51:07.099Z,100432.63
2022-10-30T20:53:34.316Z,100421.69
2022-10-30T20:56:03.121Z,100344.56
2022-10-30T20:58:30.702Z,100414.13
2022-10-30T21:00:58.837Z,100403.63
2022-10-30T21:03:27.110Z,100336.22
2022-10-30T21:06:00.312Z,100376.97
2022-10-30T21:08:29.796Z,100380.09
2022-10-30T21:11:02.941Z,100345.03
2022-10-30T21:13:30.750Z,100380.31
2022-10-30T21:16:03.310Z,100374.97
2022-10-30T21:18:30.259Z,100335.16
2022-10-30T21:21:05.788Z,100418.34
2022-10-30T21:23:32.888Z,100393.03
2022-10-30T21:26:01.816Z,100365.00
2022-10-30T21:28:28.984Z,100352.06
2022-10-30T21:31:00.826Z,100392.47
2022-10-30T21:33:31.488Z,100356.38
2022-10-30T21:36:12.049Z,100347.34
2022-10-30T21:38:44.632Z,100315.44
2022-10-30T21:41:13.322Z,100326.13
2022-10-30T21:43:40.565Z,100377.78
2022-10-30T21:46:09.152Z,100310.28
2022-10-30T21:48:36.296Z,100340.28
2022-10-30T21:51:16.371Z,100347.09
2022-10-30T21:53:46.429Z,100305.13
2022-10-30T21:56:28.754Z,100382.28
2022-10-30T21:58:57.660Z,100330.50
2022-10-30T22:01:28.813Z,100324.19
2022-10-30T22:03:56.152Z,100302.38
2022-10-30T22:06:23.336Z,100292.91
2022-10-30T22:08:55.004Z,100379.53
2022-10-30T22:11:24.068Z,100381.44
2022-10-30T22:13:56.650Z,100276.25
2022-10-30T22:16:24.789Z,100306.34
2022-10-30T22:18:52.140Z,100321.66
2022-10-30T22:21:19.353Z,100395.19
2022-10-30T22:23:46.462Z,100333.44
2022-10-30T22:26:18.739Z,100394.06
2022-10-30T22:28:45.867Z,100333.66
2022-10-30T22:31:15.526Z,100306.81
2022-10-30T22:33:43.078Z,100367.16
2022-10-30T22:36:24.674Z,100325.56
2022-10-30T22:39:07.832Z,100364.06
2022-10-30T22:41:38.010Z,100280.31
2022-10-30T22:44:08.653Z,100346.91
2022-10-30T22:46:38.670Z,100291.53
2022-10-30T22:49:06.702Z,100349.41
2022-10-30T22:51:35.888Z,100340.66
2022-10-30T22:54:05.078Z,100279.53
2022-10-30T22:56:34.681Z,100281.63
2022-10-30T22:59:05.294Z,100349.06
2022-10-30T23:01:34.854Z,100310.59
2022-10-30T23:04:04.802Z,100246.47
2022-10-30T23:06:33.355Z,100348.22
2022-10-30T23:09:04.310Z,100301.63
2022-10-30T23:11:34.183Z,100273.09
2022-10-30T23:14:04.106Z,100311.84
2022-10-30T23:16:31.115Z,100350.63
2022-10-30T23:19:01.715Z,100304.31
2022-10-30T23:21:31.620Z,100265.84
2022-10-30T23:24:01.328Z,100273.00
2022-10-30T23:26:31.519Z,100342.88
2022-10-30T23:29:00.187Z,100347.09
2022-10-30T23:31:33.838Z,100237.72
2022-10-30T23:34:03.755Z,100341.72
2022-10-30T23:36:30.859Z,100340.84
2022-10-30T23:39:00.634Z,100337.50
2022-10-30T23:41:30.286Z,100265.13
2022-10-30T23:44:01.558Z,100339.06
2022-10-30T23:46:28.949Z,100345.78
2022-10-30T23:48:56.070Z,100243.50
2022-10-30T23:51:23.339Z,100237.41
2022-10-30T23:53:50.528Z,100233.84
2022-10-30T23:56:18.236Z,100220.81
2022-10-30T23:58:46.831Z,100308.50
